Yakutsk Airport
UEEE : now visible

Airfield :











YOU CAN JOIN US ON...

 
LOGIN :

Register | Disclaimer

   EN    FR    IT 

 









Legend :    VFR   Marginal VFR   IFR   Intensive IFR   Very Intensive IFR
Visi :
Ceiling :
>= 8 km
>= 3000ft
5 to 8 km
1000 to 3000 ft
1500m to 5 km
500 to 1000 ft
800 to 1500m
200 to 500 ft
< 800m
< 200 ft
Symbols :   Thunderstorms  Fog  Heavy snow  Heavy precipitations  Wind > 20 kt






- Airport Elevation : 325 ft
- IATA code : YKS


UEEE - Yakutsk

CURRENT METAR :
  • 210800Z 31001MPS 9999 -SN NSC M30/M33 Q1015 R23L/450150 NOSIG RMK QFE752

EXPIRED METARs :
  • 210730Z 35001MPS 9999 -SN NSC M30/M33 Q1015 R23L/450150 NOSIG RMK QFE752
  • 210700Z 36001MPS 5000 -SN BR NSC M29/M32 Q1014 R23L/450150 NOSIG RMK QFE752
  • 210630Z 33001MPS 5000 -SN BR NSC M29/M32 Q1014 R23L/450150 NOSIG RMK QFE752
  • 210600Z 33001MPS 5000 -SN BR NSC M29/M32 Q1015 R23L/450150 NOSIG RMK QFE752

TAF TAF UEEE
Valid from the 21 at 09:00 until the 22 at 15:00 UTC


210800Z 2109/2215 35003MPS 5000 -SN SCT030 OVC070
TEMPO 2109/2115 3200 -SN BR
TEMPO 2115/2203 0300 FG VV002



MET'MAP, your aeronautical weather chart ! - Copyright ORBIFLY December 2007 - Disclaimer

ORBIFLY MET'MAP TEAM :

Programming & Development : Alexandra Zaïnal
Concept & Development : Baudouin d'Aumeries
Co-Development & Prog : Marc-Olivier Méhu
Technical & hardware support : Manuel Goepfert

Contact : metmap@orbifly.com




SOURCES & CREDITS :

   NOAA       Earth
Advisory